createdAt,value
2022-10-12T00:12:29.324Z,99182.25
2022-10-12T00:27:30.301Z,99176.88
2022-10-12T00:34:39.973Z,99183.25
2022-10-12T00:38:32.217Z,99173.53
2022-10-12T00:41:41.727Z,99177.25
2022-10-12T00:45:04.722Z,99167.22
2022-10-12T00:47:59.782Z,99175.44
2022-10-12T00:51:02.764Z,99179.53
2022-10-12T00:57:04.808Z,99187.91
2022-10-12T01:00:16.296Z,99191.28
2022-10-12T01:02:57.312Z,99189.97
2022-10-12T01:05:31.897Z,99192.31
2022-10-12T01:08:18.298Z,99198.94
2022-10-12T01:11:06.340Z,99198.28
2022-10-12T01:13:45.778Z,99192.41
2022-10-12T01:17:15.907Z,99197.38
2022-10-12T01:21:12.420Z,99195.50
2022-10-12T01:24:41.863Z,99200.00
2022-10-12T01:28:36.120Z,99197.44
2022-10-12T01:31:37.349Z,99192.72
2022-10-12T01:34:49.496Z,99193.53
2022-10-12T01:38:17.690Z,99197.13
2022-10-12T01:41:48.843Z,99196.81
2022-10-12T01:44:42.930Z,99191.28
2022-10-12T01:47:20.929Z,99191.91
2022-10-12T01:49:58.525Z,99187.69
2022-10-12T01:52:58.755Z,99194.38
2022-10-12T01:56:15.360Z,99189.22
2022-10-12T01:59:47.330Z,99194.75
2022-10-12T02:03:14.493Z,99195.94
2022-10-12T02:06:53.832Z,99192.78
2022-10-12T02:09:40.234Z,99198.31
2022-10-12T02:12:32.063Z,99186.13
2022-10-12T02:15:26.249Z,99195.25
2022-10-12T02:17:56.981Z,99192.09
2022-10-12T02:20:37.547Z,99192.84
2022-10-12T02:23:12.580Z,99186.63
2022-10-12T02:26:00.825Z,99185.59
2022-10-12T02:29:13.340Z,99180.25
2022-10-12T02:33:17.157Z,99181.00
2022-10-12T02:36:03.253Z,99184.91
2022-10-12T02:38:51.292Z,99187.50
2022-10-12T02:42:02.171Z,99182.88
2022-10-12T02:44:44.677Z,99183.34
2022-10-12T02:47:39.649Z,99187.81
2022-10-12T02:50:11.951Z,99180.94
2022-10-12T02:52:55.898Z,99195.06
2022-10-12T02:55:46.497Z,99186.16
2022-10-12T02:58:25.014Z,99189.59
2022-10-12T03:01:11.674Z,99182.97
2022-10-12T03:04:09.184Z,99180.56
2022-10-12T03:06:55.480Z,99181.97
2022-10-12T03:09:39.426Z,99180.84
2022-10-12T03:12:20.606Z,99185.56
2022-10-12T03:14:58.406Z,99174.25
2022-10-12T03:17:56.379Z,99181.16
2022-10-12T03:20:39.702Z,99175.88
2022-10-12T03:23:19.455Z,99169.56
2022-10-12T03:26:00.626Z,99176.34
2022-10-12T03:28:40.004Z,99171.03
2022-10-12T03:31:24.114Z,99159.28
2022-10-12T03:34:08.876Z,99172.75
2022-10-12T03:36:47.190Z,99172.78
2022-10-12T03:39:41.595Z,99170.69
2022-10-12T03:42:23.065Z,99173.69
2022-10-12T03:44:57.771Z,99172.78
2022-10-12T03:47:36.701Z,99163.28
2022-10-12T03:50:19.952Z,99174.19
2022-10-12T03:52:50.889Z,99177.72
2022-10-12T03:55:29.803Z,99171.25
2022-10-12T03:58:05.451Z,99179.50
2022-10-12T04:00:49.814Z,99172.81
2022-10-12T04:03:26.702Z,99167.84
2022-10-12T04:06:45.050Z,99162.22
2022-10-12T04:09:20.904Z,99171.91
2022-10-12T04:12:05.464Z,99176.09
2022-10-12T04:15:10.183Z,99176.59
2022-10-12T04:17:57.001Z,99182.44
2022-10-12T04:21:00.101Z,99178.75
2022-10-12T04:23:39.425Z,99178.94
2022-10-12T04:45:05.389Z,99171.06
2022-10-12T04:49:17.192Z,99187.00
2022-10-12T04:52:33.487Z,99175.53
2022-10-12T04:55:55.327Z,99183.81
2022-10-12T04:59:18.390Z,99182.16
2022-10-12T05:02:40.197Z,99177.94
2022-10-12T05:17:04.282Z,99181.97
2022-10-12T05:39:54.408Z,99172.53
2022-10-12T05:43:34.059Z,99165.31
2022-10-12T05:47:28.557Z,99172.06
2022-10-12T05:51:14.921Z,99180.75
2022-10-12T05:54:51.023Z,99176.66
2022-10-12T05:58:56.354Z,99171.50
2022-10-12T06:02:31.939Z,99174.53
2022-10-12T06:05:59.174Z,99161.59
2022-10-12T06:12:08.938Z,99176.91
2022-10-12T06:14:57.009Z,99168.22
2022-10-12T06:21:33.038Z,99171.94
2022-10-12T06:24:50.219Z,99178.00
2022-10-12T06:28:03.755Z,99168.28
2022-10-12T06:31:39.618Z,99174.25
2022-10-12T06:34:27.149Z,99175.53
2022-10-12T06:37:49.727Z,99173.31
2022-10-12T06:40:38.863Z,99178.13
2022-10-12T06:43:47.085Z,99171.78
2022-10-12T06:46:32.709Z,99171.25
2022-10-12T06:49:17.525Z,99181.59
2022-10-12T06:52:00.342Z,99170.06
2022-10-12T06:54:33.478Z,99177.09
2022-10-12T06:57:14.768Z,99181.16
2022-10-12T06:59:54.356Z,99182.03
2022-10-12T07:02:47.672Z,99179.94
2022-10-12T07:05:59.929Z,99182.88
2022-10-12T07:08:39.780Z,99180.38
2022-10-12T07:11:22.594Z,99192.19
2022-10-12T07:14:10.573Z,99201.75
2022-10-12T07:17:04.584Z,99191.03
2022-10-12T07:22:23.287Z,99190.88
2022-10-12T07:24:56.886Z,99190.34
2022-10-12T07:27:49.848Z,99186.56
2022-10-12T07:30:22.169Z,99195.63
2022-10-12T07:32:55.818Z,99192.94
2022-10-12T07:35:33.526Z,99191.09
2022-10-12T07:38:23.911Z,99196.97
2022-10-12T07:40:51.455Z,99191.34
2022-10-12T07:43:18.993Z,99194.31
2022-10-12T07:45:46.321Z,99199.16
2022-10-12T07:48:13.661Z,99198.88
2022-10-12T07:50:40.994Z,99196.06
2022-10-12T07:53:08.651Z,99202.66
2022-10-12T07:55:36.005Z,99199.38
2022-10-12T07:58:03.787Z,99205.72
2022-10-12T08:00:31.584Z,99206.94
2022-10-12T08:02:59.689Z,99207.31
2022-10-12T08:05:27.680Z,99208.06
2022-10-12T08:07:55.831Z,99208.88
2022-10-12T08:10:23.584Z,99210.47
2022-10-12T08:12:52.174Z,99214.38
2022-10-12T08:15:19.732Z,99213.88
2022-10-12T08:17:47.101Z,99214.19
2022-10-12T08:20:14.734Z,99204.59
2022-10-12T08:22:42.017Z,99212.22
2022-10-12T08:25:09.540Z,99202.47
2022-10-12T08:27:38.712Z,99203.03
2022-10-12T08:30:10.365Z,99200.41
2022-10-12T08:32:37.625Z,99202.59
2022-10-12T08:35:06.437Z,99198.47
2022-10-12T08:37:33.684Z,99192.91
2022-10-12T08:40:03.500Z,99195.56
2022-10-12T08:43:21.321Z,99199.84
2022-10-12T08:45:59.665Z,99200.75
2022-10-12T08:48:48.340Z,99204.06
2022-10-12T08:51:24.727Z,99203.75
2022-10-12T08:54:10.946Z,99208.25
2022-10-12T08:56:40.256Z,99207.22
2022-10-12T08:59:16.889Z,99201.06
2022-10-12T09:02:13.534Z,99199.94
2022-10-12T09:05:08.345Z,99193.47
2022-10-12T09:07:48.845Z,99193.41
2022-10-12T09:10:46.992Z,99192.81
2022-10-12T09:14:15.863Z,99199.13
2022-10-12T09:16:48.599Z,99203.06
2022-10-12T09:19:25.202Z,99186.97
2022-10-12T09:21:52.574Z,99204.59
2022-10-12T09:24:27.053Z,99189.63
2022-10-12T09:27:03.204Z,99187.38
2022-10-12T09:29:34.561Z,99181.00
2022-10-12T09:33:27.833Z,99203.50
2022-10-12T09:35:57.521Z,99174.34
2022-10-12T09:38:24.921Z,99200.84
2022-10-12T09:40:52.239Z,99191.69
2022-10-12T09:43:19.680Z,99197.81
2022-10-12T09:45:47.910Z,99193.25
2022-10-12T09:48:24.000Z,99183.59
2022-10-12T09:51:02.332Z,99189.75
2022-10-12T09:53:48.849Z,99197.47
2022-10-12T09:56:47.939Z,99181.16
2022-10-12T09:59:36.479Z,99199.97
2022-10-12T10:02:23.413Z,99195.19
2022-10-12T10:04:52.975Z,99198.09
2022-10-12T10:07:34.543Z,99197.00
2022-10-12T10:10:10.353Z,99192.69
2022-10-12T10:13:02.995Z,99179.50
2022-10-12T10:15:39.216Z,99177.97
2022-10-12T10:18:38.962Z,99183.41
2022-10-12T10:21:14.835Z,99160.97
2022-10-12T10:23:53.709Z,99156.34
2022-10-12T10:26:24.635Z,99191.22
2022-10-12T10:29:33.423Z,99184.72
2022-10-12T10:32:26.975Z,99198.94
2022-10-12T10:35:26.852Z,99191.66
2022-10-12T10:37:56.540Z,99183.06
2022-10-12T10:40:32.226Z,99191.09
2022-10-12T10:43:16.497Z,99185.63
2022-10-12T10:45:55.767Z,99192.91
2022-10-12T10:49:01.493Z,99194.50
2022-10-12T10:51:54.717Z,99198.09
2022-10-12T10:54:32.068Z,99172.97
2022-10-12T10:57:18.637Z,99186.91
2022-10-12T11:00:26.063Z,99192.09
2022-10-12T11:03:03.310Z,99185.72
2022-10-12T11:06:16.669Z,99175.38
2022-10-12T11:08:46.478Z,99182.53
2022-10-12T11:11:26.213Z,99161.38
2022-10-12T11:14:20.756Z,99176.56
2022-10-12T11:17:02.480Z,99177.72
2022-10-12T11:20:17.323Z,99184.50
2022-10-12T11:23:04.000Z,99160.06
2022-10-12T11:26:02.768Z,99172.34
2022-10-12T11:28:33.583Z,99174.88
2022-10-12T11:31:02.641Z,99162.97
2022-10-12T11:33:42.931Z,99170.28
2022-10-12T11:36:20.019Z,99153.84
2022-10-12T11:39:06.653Z,99154.94
2022-10-12T11:42:22.234Z,99165.28
2022-10-12T11:44:47.162Z,99158.78
2022-10-12T11:47:47.248Z,99146.81
2022-10-12T11:50:42.265Z,99151.19
2022-10-12T11:53:33.071Z,99126.25
2022-10-12T11:56:25.778Z,99151.84
2022-10-12T11:59:18.826Z,99152.78
2022-10-12T12:02:17.071Z,99148.09
2022-10-12T12:04:48.288Z,99144.00
2022-10-12T12:07:47.725Z,99142.75
2022-10-12T12:10:27.627Z,99141.22
2022-10-12T12:13:18.074Z,99145.69
2022-10-12T12:15:49.607Z,99141.69
2022-10-12T12:18:28.774Z,99135.78
2022-10-12T12:21:10.319Z,99137.00
2022-10-12T12:23:57.172Z,99133.72
2022-10-12T12:26:29.918Z,99135.25
2022-10-12T12:29:27.967Z,99127.44
2022-10-12T12:32:00.098Z,99121.00
2022-10-12T12:34:29.950Z,99126.72
2022-10-12T12:36:58.499Z,99125.34
2022-10-12T12:39:33.251Z,99120.38
2022-10-12T12:42:09.014Z,99126.09
2022-10-12T12:44:44.619Z,99117.38
2022-10-12T12:47:43.445Z,99115.13
2022-10-12T12:50:22.642Z,99109.84
2022-10-12T12:52:50.461Z,99117.00
2022-10-12T12:56:19.037Z,99107.16
2022-10-12T12:59:52.844Z,99100.38
2022-10-12T13:03:48.711Z,99092.53
2022-10-12T13:07:17.122Z,99099.28
2022-10-12T13:10:27.384Z,99094.00
2022-10-12T13:13:47.451Z,99094.16
2022-10-12T13:17:32.477Z,99097.91
2022-10-12T13:20:26.510Z,99088.97
2022-10-12T13:22:58.662Z,99093.41
2022-10-12T13:25:48.220Z,99095.13
2022-10-12T13:28:34.370Z,99086.53
2022-10-12T13:31:34.768Z,99090.72
2022-10-12T13:34:24.911Z,99083.56
2022-10-12T13:37:09.819Z,99075.03
2022-10-12T13:39:49.229Z,99082.22
2022-10-12T13:42:26.481Z,99075.53
2022-10-12T13:44:54.859Z,99076.72
2022-10-12T13:47:29.037Z,99080.22
2022-10-12T13:49:57.746Z,99078.97
2022-10-12T13:52:33.925Z,99076.69
2022-10-12T13:55:14.732Z,99074.56
2022-10-12T13:57:48.498Z,99073.41
2022-10-12T14:00:25.474Z,99076.53
2022-10-12T14:03:08.554Z,99081.25
2022-10-12T14:05:45.722Z,99077.31
2022-10-12T14:08:25.929Z,99086.84
2022-10-12T14:10:57.611Z,99072.78
2022-10-12T14:13:35.001Z,99068.41
2022-10-12T14:16:05.457Z,99062.38
2022-10-12T14:18:47.095Z,99069.47
2022-10-12T14:21:36.875Z,99068.78
2022-10-12T14:24:10.893Z,99067.28
2022-10-12T14:26:42.333Z,99069.69
2022-10-12T14:29:50.740Z,99066.13
2022-10-12T14:32:24.185Z,99058.97
2022-10-12T14:35:29.355Z,99058.75
2022-10-12T14:37:58.359Z,99062.38
2022-10-12T14:40:39.431Z,99054.28
2022-10-12T14:43:14.910Z,99061.22
2022-10-12T14:45:42.240Z,99050.25
2022-10-12T14:48:23.411Z,99043.94
2022-10-12T14:50:51.469Z,99045.13
2022-10-12T14:53:18.749Z,99046.31
2022-10-12T14:55:48.523Z,99049.47
2022-10-12T14:58:18.760Z,99046.06
2022-10-12T15:00:46.230Z,99050.63
2022-10-12T15:03:13.647Z,99046.91
2022-10-12T15:05:40.932Z,99052.81
2022-10-12T15:08:09.354Z,99052.03
2022-10-12T15:10:38.093Z,99045.50
2022-10-12T15:13:05.428Z,99042.56
2022-10-12T15:15:48.239Z,99037.59
2022-10-12T15:18:15.587Z,99042.25
2022-10-12T15:20:48.267Z,99048.56
2022-10-12T15:23:16.640Z,99047.13
2022-10-12T15:25:56.725Z,99034.97
2022-10-12T15:28:24.151Z,99039.28
2022-10-12T15:31:16.033Z,99038.38
2022-10-12T15:33:42.095Z,99035.56
2022-10-12T15:36:10.373Z,99042.63
2022-10-12T15:38:37.916Z,99032.50
2022-10-12T15:41:05.867Z,99036.16
2022-10-12T15:43:35.691Z,99029.28
2022-10-12T15:46:07.901Z,99031.09
2022-10-12T15:48:35.305Z,99027.69
2022-10-12T15:51:07.229Z,99031.16
2022-10-12T15:53:34.499Z,99030.97
2022-10-12T15:56:01.761Z,99017.75
2022-10-12T15:58:29.020Z,99023.69
2022-10-12T16:00:56.593Z,99019.59
2022-10-12T16:03:26.265Z,99023.50
2022-10-12T16:05:54.600Z,99018.97
2022-10-12T16:08:21.942Z,99016.78
2022-10-12T16:10:50.298Z,99015.00
2022-10-12T16:13:17.948Z,99012.03
2022-10-12T16:15:45.273Z,99017.25
2022-10-12T16:18:15.524Z,99022.75
2022-10-12T16:20:46.681Z,99015.88
2022-10-12T16:23:33.497Z,99023.31
2022-10-12T16:26:09.159Z,99023.16
2022-10-12T16:28:37.990Z,99022.88
2022-10-12T16:31:17.480Z,99026.75
2022-10-12T16:33:45.226Z,99021.72
2022-10-12T16:36:16.324Z,99029.03
2022-10-12T16:38:44.635Z,99031.13
2022-10-12T16:41:16.412Z,99024.13
2022-10-12T16:43:44.577Z,99032.06
2022-10-12T16:46:11.978Z,99040.78
2022-10-12T16:48:39.388Z,99035.88
2022-10-12T16:51:11.367Z,99032.19
2022-10-12T16:53:38.949Z,99036.28
2022-10-12T16:56:06.676Z,99030.22
2022-10-12T16:58:34.112Z,99030.72
2022-10-12T17:01:13.471Z,99041.50
2022-10-12T17:03:41.332Z,99040.38
2022-10-12T17:06:09.622Z,99047.16
2022-10-12T17:08:39.107Z,99055.63
2022-10-12T17:11:16.926Z,99044.50
2022-10-12T17:13:48.826Z,99052.41
2022-10-12T17:16:40.924Z,99049.66
2022-10-12T17:19:08.557Z,99050.13
2022-10-12T17:21:41.918Z,99055.25
2022-10-12T17:24:12.249Z,99015.91
2022-10-12T17:26:41.120Z,99047.72
2022-10-12T17:29:17.099Z,99038.63
2022-10-12T17:31:46.743Z,99023.47
2022-10-12T17:34:34.721Z,99051.78
2022-10-12T17:37:04.240Z,99056.97
2022-10-12T17:39:38.547Z,99065.34
2022-10-12T17:42:06.924Z,99066.94
2022-10-12T17:44:35.675Z,99067.31
2022-10-12T17:47:03.125Z,99084.06
2022-10-12T17:49:30.609Z,99042.59
2022-10-12T17:51:58.083Z,99087.25
2022-10-12T17:54:27.533Z,99057.72
2022-10-12T17:56:56.345Z,99045.72
2022-10-12T17:59:24.932Z,99056.53
2022-10-12T18:01:55.873Z,99089.19
2022-10-12T18:04:23.207Z,99064.44
2022-10-12T18:06:50.758Z,99080.03
2022-10-12T18:09:18.142Z,99088.00
2022-10-12T18:11:45.521Z,99089.16
2022-10-12T18:14:13.605Z,99100.31
2022-10-12T18:16:41.824Z,99054.75
2022-10-12T18:19:13.880Z,99075.47
2022-10-12T18:21:41.352Z,99108.97
2022-10-12T18:24:16.988Z,99116.19
2022-10-12T18:26:47.547Z,99101.41
2022-10-12T18:29:15.219Z,99075.06
2022-10-12T18:31:42.790Z,99120.97
2022-10-12T18:34:10.563Z,99114.56
2022-10-12T18:36:39.560Z,99117.41
2022-10-12T18:39:06.915Z,99120.13
2022-10-12T18:41:34.345Z,99095.38
2022-10-12T18:44:03.589Z,99113.25
2022-10-12T18:46:36.663Z,99089.31
2022-10-12T18:49:08.362Z,99120.09
2022-10-12T18:51:43.118Z,99084.88
2022-10-12T18:54:13.999Z,99114.03
2022-10-12T18:56:41.905Z,99124.00
2022-10-12T18:59:12.761Z,99119.19
2022-10-12T19:01:40.056Z,99119.19
2022-10-12T19:04:07.750Z,99122.38
2022-10-12T19:06:42.133Z,99084.97
2022-10-12T19:09:13.818Z,99092.47
2022-10-12T19:11:41.770Z,99124.69
2022-10-12T19:14:16.394Z,99100.69
2022-10-12T19:16:44.849Z,99100.69
2022-10-12T19:19:20.929Z,99120.69
2022-10-12T19:21:53.843Z,99076.03
2022-10-12T19:24:21.954Z,99112.28
2022-10-12T19:26:49.498Z,99091.84
2022-10-12T19:29:17.072Z,99118.94
2022-10-12T19:31:49.753Z,99081.44
2022-10-12T19:34:21.478Z,99092.16
2022-10-12T19:36:49.313Z,99110.16
2022-10-12T19:39:23.027Z,99104.91
2022-10-12T19:41:52.984Z,99089.41
2022-10-12T19:44:21.178Z,99100.47
2022-10-12T19:46:48.857Z,99144.44
2022-10-12T19:49:18.567Z,99111.66
2022-10-12T19:51:47.113Z,99107.53
2022-10-12T19:54:16.022Z,99106.75
2022-10-12T19:56:43.334Z,99136.75
2022-10-12T19:59:10.953Z,99144.41
2022-10-12T20:01:39.882Z,99110.72
2022-10-12T20:04:12.966Z,99100.34
2022-10-12T20:06:41.057Z,99106.78
2022-10-12T20:09:09.650Z,99125.50
2022-10-12T20:11:39.098Z,99147.84
2022-10-12T20:14:07.506Z,99124.41
2022-10-12T20:16:35.525Z,99123.81
2022-10-12T20:19:05.156Z,99110.63
2022-10-12T20:21:32.675Z,99137.06
2022-10-12T20:24:00.058Z,99151.75
2022-10-12T20:26:28.767Z,99146.38
2022-10-12T20:28:56.227Z,99126.59
2022-10-12T20:31:24.692Z,99141.22
2022-10-12T20:33:55.446Z,99145.56
2022-10-12T20:36:31.215Z,99129.53
2022-10-12T20:38:59.825Z,99139.16
2022-10-12T20:41:28.186Z,99127.19
2022-10-12T20:43:59.549Z,99132.44
2022-10-12T20:46:29.607Z,99140.28
2022-10-12T20:49:01.438Z,99133.66
2022-10-12T20:51:36.395Z,99121.25
2022-10-12T20:54:05.754Z,99148.47
2022-10-12T20:56:34.235Z,99114.91
2022-10-12T20:59:01.991Z,99106.06
2022-10-12T21:01:29.415Z,99136.84
2022-10-12T21:03:57.262Z,99112.00
2022-10-12T21:06:25.073Z,99131.00
2022-10-12T21:08:57.042Z,99131.00
2022-10-12T21:11:25.320Z,99113.00
2022-10-12T21:13:52.958Z,99122.59
2022-10-12T21:16:20.317Z,99137.00
2022-10-12T21:18:47.942Z,99108.16
2022-10-12T21:21:20.136Z,99108.53
2022-10-12T21:24:00.710Z,99146.72
2022-10-12T21:26:30.932Z,99111.78
2022-10-12T21:29:00.209Z,99147.25
2022-10-12T21:31:32.423Z,99104.94
2022-10-12T21:34:07.630Z,99133.19
2022-10-12T21:36:37.074Z,99101.03
2022-10-12T21:39:12.802Z,99106.09
2022-10-12T21:41:40.661Z,99094.84
2022-10-12T21:44:08.281Z,99101.59
2022-10-12T21:46:36.772Z,99117.13
2022-10-12T21:49:07.932Z,99090.22
2022-10-12T21:51:36.887Z,99079.91
2022-10-12T21:54:07.956Z,99075.97
2022-10-12T21:56:37.489Z,99088.31
2022-10-12T21:59:06.669Z,99093.06
2022-10-12T22:01:40.219Z,99089.75
2022-10-12T22:04:14.052Z,99116.09
2022-10-12T22:06:43.184Z,99102.44
2022-10-12T22:09:16.882Z,99089.72
2022-10-12T22:11:46.514Z,99106.00
2022-10-12T22:14:18.465Z,99088.94
2022-10-12T22:16:51.045Z,99130.91
2022-10-12T22:19:19.466Z,99101.38
2022-10-12T22:21:51.317Z,99100.00
2022-10-12T22:24:20.606Z,99090.84
2022-10-12T22:26:48.207Z,99140.03
2022-10-12T22:29:15.583Z,99131.84
2022-10-12T22:31:44.395Z,99083.00
2022-10-12T22:34:11.830Z,99127.97
2022-10-12T22:36:39.144Z,99095.88
2022-10-12T22:39:06.511Z,99120.41
2022-10-12T22:41:33.803Z,99119.47
2022-10-12T22:44:02.074Z,99118.81
2022-10-12T22:46:29.398Z,99098.00
2022-10-12T22:48:56.843Z,99111.59
2022-10-12T22:51:36.328Z,99066.16
2022-10-12T22:54:04.112Z,99098.38
2022-10-12T22:56:31.903Z,99110.38
2022-10-12T22:59:03.892Z,99071.63
2022-10-12T23:01:31.232Z,99100.72
2022-10-12T23:03:58.517Z,99109.09
2022-10-12T23:06:26.108Z,99076.19
2022-10-12T23:08:53.981Z,99072.69
2022-10-12T23:11:27.084Z,99077.50
2022-10-12T23:13:56.618Z,99074.72
2022-10-12T23:16:29.852Z,99104.16
2022-10-12T23:19:02.513Z,99114.03
2022-10-12T23:21:33.455Z,99070.91
2022-10-12T23:24:04.801Z,99071.44
2022-10-12T23:26:32.625Z,99074.34
2022-10-12T23:29:00.422Z,99105.88
2022-10-12T23:31:30.671Z,99079.53
2022-10-12T23:34:03.157Z,99069.78
2022-10-12T23:36:31.288Z,99075.38
2022-10-12T23:39:02.205Z,99086.84
2022-10-12T23:41:29.546Z,99126.41
2022-10-12T23:43:57.039Z,99134.56
2022-10-12T23:46:24.414Z,99094.22
2022-10-12T23:48:51.687Z,99116.97
2022-10-12T23:51:18.983Z,99117.91
2022-10-12T23:53:46.284Z,99115.38
2022-10-12T23:56:13.720Z,99105.09
2022-10-12T23:58:41.171Z,99068.06
